Time;durP1;ratioP1;P1;durP2;ratioP2;P2;SDS_P1;SDS_P2;PMS_P1;PMS_P2;Temp;Humidity;BMP_temperature;BMP_pressure;BME280_temperature;BME280_humidity;BME280_pressure;Samples;Min_cycle;Max_cycle;Signal;HPM_P1;HPM_P2
2022/06/18 00:00:00;;;;;;;2.30;1.75;;;;;;;;;;4985665;28;20432;-69
2022/06/18 00:02:25;;;;;;;3.13;2.08;;;;;;;;;;4970841;28;20025;-69
2022/06/18 00:04:50;;;;;;;4.18;1.70;;;;;;;;;;4970321;28;20448;-70
2022/06/18 00:07:19;;;;;;;3.85;1.77;;;;;;;;;;4970943;28;20381;-69
2022/06/18 00:09:45;;;;;;;;;;;;;;;;;;4985713;28;20302;-69
2022/06/18 00:15:18;;;;;;;3.28;2.42;;;;;;;;;;4955754;28;20091;-69
2022/06/18 00:17:44;;;;;;;3.42;2.13;;;;;;;;;;4970885;28;20492;-70
2022/06/18 00:20:11;;;;;;;3.42;1.85;;;;;;;;;;4952654;28;20444;-69
2022/06/18 00:22:36;;;;;;;2.97;1.88;;;;;;;;;;4952393;28;20397;-71
2022/06/18 00:25:10;;;;;;;4.40;2.13;;;;;;;;;;4970537;28;20044;-71
2022/06/18 00:27:35;;;;;;;3.25;1.90;;;;;;;;;;4952368;28;20510;-70
2022/06/18 00:30:01;;;;;;;2.88;1.70;;;;;;;;;;4971453;28;20359;-70
2022/06/18 00:32:26;;;;;;;4.80;2.28;;;;;;;;;;4971529;28;20407;-69
2022/06/18 00:34:51;;;;;;;3.10;2.10;;;;;;;;;;4969892;28;20487;-69
2022/06/18 00:37:19;;;;;;;2.13;1.45;;;;;;;;;;4970221;28;20053;-70
2022/06/18 00:39:45;;;;;;;6.18;2.17;;;;;;;;;;4969572;28;20440;-69
2022/06/18 00:42:20;;;;;;;2.75;1.95;;;;;;;;;;4952224;28;20444;-70
2022/06/18 00:44:52;;;;;;;3.25;2.00;;;;;;;;;;4952040;28;20341;-70
2022/06/18 00:47:37;;;;;;;3.70;2.20;;;;;;;;;;4984441;28;20195;-70
2022/06/18 00:50:17;;;;;;;2.22;1.73;;;;;;;;;;4970549;28;20419;-70
2022/06/18 00:53:02;;;;;;;4.30;1.77;;;;;;;;;;4952635;28;20432;-69
2022/06/18 00:55:39;;;;;;;4.40;2.17;;;;;;;;;;4951882;28;20111;-69
2022/06/18 00:58:17;;;;;;;2.47;1.80;;;;;;;;;;4985088;28;20336;-69
2022/06/18 01:00:47;;;;;;;2.67;1.70;;;;;;;;;;4965067;28;20429;-69
2022/06/18 01:03:28;;;;;;;2.17;1.75;;;;;;;;;;4951765;28;20030;-70
2022/06/18 01:05:55;;;;;;;3.63;1.75;;;;;;;;;;4951792;28;20397;-70
2022/06/18 01:08:22;;;;;;;3.50;2.10;;;;;;;;;;4951760;28;20420;-70
2022/06/18 01:11:11;;;;;;;2.85;1.95;;;;;;;;;;4935282;28;20345;-70
2022/06/18 01:13:38;;;;;;;2.33;1.58;;;;;;;;;;4952329;28;20115;-70
2022/06/18 01:16:05;;;;;;;3.67;2.03;;;;;;;;;;4969167;28;20087;-70
2022/06/18 01:18:31;;;;;;;2.72;1.85;;;;;;;;;;4967755;28;20448;-69
2022/06/18 01:21:17;;;;;;;4.18;2.30;;;;;;;;;;4951550;28;20321;-69
2022/06/18 01:23:48;;;;;;;2.63;1.77;;;;;;;;;;4968583;28;20379;-70
2022/06/18 01:26:14;;;;;;;2.70;1.90;;;;;;;;;;4951566;28;20360;-69
2022/06/18 01:28:39;;;;;;;2.70;1.90;;;;;;;;;;4951428;28;20055;-69
2022/06/18 01:31:06;;;;;;;2.92;2.15;;;;;;;;;;4969755;28;20447;-70
2022/06/18 01:33:33;;;;;;;1.88;1.52;;;;;;;;;;4951425;28;20061;-69
2022/06/18 01:36:02;;;;;;;3.03;1.90;;;;;;;;;;4951761;28;20415;-70
2022/06/18 01:38:27;;;;;;;;;;;;;;;;;;4951529;28;20491;-70
2022/06/18 01:40:57;;;;;;;2.70;1.80;;;;;;;;;;4934979;28;20447;-69
2022/06/18 01:43:24;;;;;;;3.70;1.73;;;;;;;;;;4934942;28;20440;-70
2022/06/18 01:45:59;;;;;;;3.80;2.05;;;;;;;;;;4949264;28;20407;-71
2022/06/18 01:48:33;;;;;;;3.35;1.70;;;;;;;;;;4932109;28;20441;-70
2022/06/18 01:51:03;;;;;;;3.90;2.10;;;;;;;;;;4949887;28;20440;-70
2022/06/18 01:53:38;;;;;;;3.13;1.80;;;;;;;;;;4949403;28;20381;-70
2022/06/18 01:56:08;;;;;;;2.28;1.70;;;;;;;;;;4931990;28;20131;-70
2022/06/18 01:58:38;;;;;;;3.15;1.73;;;;;;;;;;4936092;28;20452;-70
2022/06/18 02:01:08;;;;;;;2.00;1.50;;;;;;;;;;4952201;28;20441;-69
2022/06/18 02:03:33;;;;;;;2.80;2.00;;;;;;;;;;4936000;28;20433;-70
2022/06/18 02:05:59;;;;;;;2.25;1.48;;;;;;;;;;4953729;28;20392;-71
2022/06/18 02:08:25;;;;;;;2.45;1.67;;;;;;;;;;4936110;28;20433;-69
2022/06/18 02:10:54;;;;;;;3.30;1.92;;;;;;;;;;4953287;28;20474;-70
2022/06/18 02:13:22;;;;;;;2.70;2.00;;;;;;;;;;4936017;28;20352;-70
2022/06/18 02:15:47;;;;;;;2.33;1.70;;;;;;;;;;4954035;28;20325;-70
2022/06/18 02:18:14;;;;;;;4.25;2.03;;;;;;;;;;4951620;28;20030;-69
2022/06/18 02:20:48;;;;;;;3.35;1.88;;;;;;;;;;4935390;28;20419;-69
2022/06/18 02:23:13;;;;;;;6.85;1.77;;;;;;;;;;4952697;28;20528;-69
2022/06/18 02:25:38;;;;;;;2.78;1.90;;;;;;;;;;4953437;28;20337;-69
2022/06/18 02:28:16;;;;;;;2.92;1.75;;;;;;;;;;4953033;28;20306;-70
2022/06/18 02:30:41;;;;;;;3.35;1.80;;;;;;;;;;4935275;28;20471;-70
2022/06/18 02:33:30;;;;;;;3.97;2.03;;;;;;;;;;4951317;28;20484;-71
2022/06/18 02:35:57;;;;;;;5.60;1.92;;;;;;;;;;4951269;28;20525;-70
2022/06/18 02:38:23;;;;;;;2.95;1.95;;;;;;;;;;4935623;28;20472;-70
2022/06/18 02:40:48;;;;;;;3.50;1.70;;;;;;;;;;4935549;28;20494;-69
2022/06/18 02:43:16;;;;;;;1.60;1.30;;;;;;;;;;4951989;28;20575;-71
2022/06/18 02:45:42;;;;;;;4.00;2.22;;;;;;;;;;4935058;28;20437;-69
2022/06/18 02:48:09;;;;;;;3.83;2.05;;;;;;;;;;4936330;28;20333;-70
2022/06/18 02:50:38;;;;;;;3.45;2.13;;;;;;;;;;4952508;28;20523;-70
2022/06/18 02:53:03;;;;;;;3.28;1.58;;;;;;;;;;4935955;28;20322;-70
2022/06/18 02:55:39;;;;;;;2.92;1.90;;;;;;;;;;4934575;28;20338;-69
2022/06/18 02:58:29;;;;;;;3.53;1.90;;;;;;;;;;4951160;28;20453;-70
2022/06/18 03:00:57;;;;;;;2.75;1.60;;;;;;;;;;4934559;28;20420;-70
2022/06/18 03:03:27;;;;;;;3.50;1.80;;;;;;;;;;4952381;28;20340;-70
2022/06/18 03:05:53;;;;;;;3.47;1.73;;;;;;;;;;4935558;28;20460;-70
2022/06/18 03:08:20;;;;;;;2.30;1.80;;;;;;;;;;4950703;28;20396;-69
2022/06/18 03:13:29;;;;;;;8.93;2.05;;;;;;;;;;4951762;28;20440;-70
2022/06/18 03:15:56;;;;;;;2.60;1.83;;;;;;;;;;4951854;28;20411;-70
2022/06/18 03:18:24;;;;;;;4.00;2.03;;;;;;;;;;4952091;28;20326;-70
2022/06/18 03:20:57;;;;;;;3.10;2.15;;;;;;;;;;4934374;28;20472;-70
2022/06/18 03:23:23;;;;;;;3.83;1.60;;;;;;;;;;4950401;28;20358;-70
2022/06/18 03:25:50;;;;;;;4.10;2.03;;;;;;;;;;4951937;28;20480;-69
2022/06/18 03:28:18;;;;;;;2.55;1.73;;;;;;;;;;4934297;28;20433;-69
2022/06/18 03:30:43;;;;;;;2.80;1.67;;;;;;;;;;4951808;28;20480;-69
2022/06/18 03:33:10;;;;;;;2.40;1.83;;;;;;;;;;4953776;28;20277;-70
2022/06/18 03:35:37;;;;;;;3.10;1.90;;;;;;;;;;4966835;28;20448;-70
2022/06/18 03:38:02;;;;;;;4.45;1.83;;;;;;;;;;4950160;28;20420;-69
2022/06/18 03:40:28;;;;;;;3.65;1.80;;;;;;;;;;4951936;28;20429;-70
2022/06/18 03:42:53;;;;;;;3.67;2.03;;;;;;;;;;4952842;28;20387;-69
2022/06/18 03:45:19;;;;;;;2.00;1.70;;;;;;;;;;4951592;28;20481;-70
2022/06/18 03:47:48;;;;;;;4.03;1.88;;;;;;;;;;4951284;28;20440;-69
2022/06/18 03:50:14;;;;;;;;;;;;;;;;;;4934268;28;20084;-70
2022/06/18 03:52:40;;;;;;;3.15;2.10;;;;;;;;;;4949953;28;20224;-71
2022/06/18 03:55:06;;;;;;;2.33;1.50;;;;;;;;;;4951741;28;20318;-69
2022/06/18 03:57:31;;;;;;;3.03;2.15;;;;;;;;;;4952756;28;20479;-69
2022/06/18 03:59:57;;;;;;;3.97;2.22;;;;;;;;;;4952212;28;20369;-69
2022/06/18 04:02:22;;;;;;;3.90;2.15;;;;;;;;;;4951567;28;20428;-69
2022/06/18 04:04:48;;;;;;;3.88;1.90;;;;;;;;;;4951771;28;20026;-70
2022/06/18 04:07:17;;;;;;;3.00;1.75;;;;;;;;;;4951483;28;20429;-70
2022/06/18 04:09:43;;;;;;;2.75;1.85;;;;;;;;;;4933398;28;20399;-69
2022/06/18 04:12:09;;;;;;;8.48;1.92;;;;;;;;;;4933401;28;20056;-69
2022/06/18 04:14:35;;;;;;;3.20;1.77;;;;;;;;;;4966418;28;20409;-69
2022/06/18 04:17:02;;;;;;;6.70;2.10;;;;;;;;;;4965592;28;20428;-69
2022/06/18 04:19:27;;;;;;;3.80;2.20;;;;;;;;;;4950703;28;20449;-70
2022/06/18 04:21:53;;;;;;;3.90;2.05;;;;;;;;;;4950850;28;20526;-69
2022/06/18 04:24:18;;;;;;;4.45;1.60;;;;;;;;;;4950607;28;20551;-70
2022/06/18 04:26:44;;;;;;;5.22;2.10;;;;;;;;;;4949418;28;20425;-69
2022/06/18 04:29:09;;;;;;;2.50;1.70;;;;;;;;;;4950365;28;20535;-69
2022/06/18 04:31:35;;;;;;;3.65;2.35;;;;;;;;;;4950788;28;20448;-70
2022/06/18 04:34:00;;;;;;;3.92;1.90;;;;;;;;;;4950796;28;20045;-70
2022/06/18 04:36:32;;;;;;;4.97;2.10;;;;;;;;;;4950708;28;20376;-69
2022/06/18 04:38:58;;;;;;;4.50;2.13;;;;;;;;;;4932816;28;20310;-70
2022/06/18 04:41:23;;;;;;;8.57;2.50;;;;;;;;;;4950638;28;20352;-70
2022/06/18 04:43:49;;;;;;;5.53;2.17;;;;;;;;;;4965470;28;20030;-69
2022/06/18 04:46:14;;;;;;;3.50;2.15;;;;;;;;;;4950360;28;20342;-70
2022/06/18 04:48:40;;;;;;;3.03;2.00;;;;;;;;;;4950756;28;20570;-69
2022/06/18 04:51:05;;;;;;;3.15;2.05;;;;;;;;;;4950113;28;20368;-69
2022/06/18 04:53:30;;;;;;;2.55;2.03;;;;;;;;;;4950957;28;20112;-70
2022/06/18 04:55:56;;;;;;;3.45;2.10;;;;;;;;;;4950036;28;20420;-69
2022/06/18 04:58:21;;;;;;;6.82;2.25;;;;;;;;;;4950668;28;20408;-70
2022/06/18 05:00:46;;;;;;;3.22;2.08;;;;;;;;;;4948880;28;20483;-70
2022/06/18 05:03:16;;;;;;;2.42;1.90;;;;;;;;;;4950682;28;20527;-70
2022/06/18 05:05:41;;;;;;;4.32;2.13;;;;;;;;;;4932966;28;20490;-69
2022/06/18 05:08:07;;;;;;;3.33;2.13;;;;;;;;;;4949985;28;20061;-69
2022/06/18 05:10:32;;;;;;;3.95;2.13;;;;;;;;;;4950117;28;20461;-69
2022/06/18 05:12:58;;;;;;;10.38;2.40;;;;;;;;;;4951316;28;20409;-70
2022/06/18 05:15:23;;;;;;;3.85;2.10;;;;;;;;;;4948970;28;20449;-69
2022/06/18 05:17:49;;;;;;;2.45;1.58;;;;;;;;;;4949853;28;20472;-69
2022/06/18 05:20:20;;;;;;;5.40;1.90;;;;;;;;;;4950027;28;20448;-70
2022/06/18 05:22:45;;;;;;;3.60;1.90;;;;;;;;;;4950297;28;20441;-69
2022/06/18 05:25:11;;;;;;;2.00;1.60;;;;;;;;;;4949943;28;20502;-69
2022/06/18 05:27:37;;;;;;;3.78;1.92;;;;;;;;;;4949836;28;20523;-70
2022/06/18 05:30:05;;;;;;;3.78;1.73;;;;;;;;;;4931996;28;20446;-69
2022/06/18 05:32:31;;;;;;;3.22;2.13;;;;;;;;;;4951099;28;20033;-69
2022/06/18 05:34:56;;;;;;;4.07;2.10;;;;;;;;;;4948321;28;20445;-69
2022/06/18 05:37:25;;;;;;;3.38;2.17;;;;;;;;;;4949691;28;20433;-69
2022/06/18 05:39:50;;;;;;;4.55;2.25;;;;;;;;;;4932140;28;20321;-69
2022/06/18 05:42:16;;;;;;;3.42;2.20;;;;;;;;;;4950864;28;20033;-69
2022/06/18 05:44:42;;;;;;;4.90;2.40;;;;;;;;;;4931858;28;20325;-70
2022/06/18 05:47:14;;;;;;;4.13;2.20;;;;;;;;;;4949784;28;20349;-69
2022/06/18 05:49:40;;;;;;;4.22;2.55;;;;;;;;;;4947602;28;20444;-69
2022/06/18 05:52:06;;;;;;;3.92;2.45;;;;;;;;;;4949573;28;20056;-69
2022/06/18 05:54:32;;;;;;;4.45;1.90;;;;;;;;;;4932211;28;20379;-69
2022/06/18 05:56:57;;;;;;;6.50;2.25;;;;;;;;;;4949375;28;20384;-69
2022/06/18 05:59:23;;;;;;;4.68;2.42;;;;;;;;;;4950199;28;20468;-69
2022/06/18 06:01:48;;;;;;;4.57;2.03;;;;;;;;;;4950829;28;20443;-69
2022/06/18 06:04:16;;;;;;;4.68;2.67;;;;;;;;;;4951202;28;20426;-69
2022/06/18 06:06:42;;;;;;;4.55;1.52;;;;;;;;;;4949232;28;20310;-68
2022/06/18 06:09:11;;;;;;;5.38;2.22;;;;;;;;;;4949606;28;20345;-71
2022/06/18 06:11:38;;;;;;;4.32;1.92;;;;;;;;;;4931741;28;20310;-69
2022/06/18 06:14:04;;;;;;;4.75;2.13;;;;;;;;;;4949886;28;20587;-69
2022/06/18 06:16:29;;;;;;;4.93;2.10;;;;;;;;;;4931600;28;20033;-69
2022/06/18 06:18:55;;;;;;;3.65;2.25;;;;;;;;;;4950353;28;20348;-68
2022/06/18 06:21:20;;;;;;;2.63;1.67;;;;;;;;;;4949681;28;20034;-69
2022/06/18 06:23:46;;;;;;;4.38;1.80;;;;;;;;;;4947159;28;20156;-69
2022/06/18 06:26:20;;;;;;;3.45;2.22;;;;;;;;;;4949193;28;20105;-69
2022/06/18 06:28:46;;;;;;;5.63;2.13;;;;;;;;;;4931421;28;20368;-68
2022/06/18 06:31:12;;;;;;;4.18;2.15;;;;;;;;;;4963742;28;20089;-69
2022/06/18 06:33:38;;;;;;;4.05;2.00;;;;;;;;;;4949534;28;20055;-69
2022/06/18 06:36:05;;;;;;;4.32;2.17;;;;;;;;;;4931300;28;20029;-68
2022/06/18 06:38:32;;;;;;;2.38;1.55;;;;;;;;;;4950282;28;20399;-69
2022/06/18 06:40:58;;;;;;;3.83;2.03;;;;;;;;;;4932237;28;20425;-70
2022/06/18 06:43:23;;;;;;;3.80;1.60;;;;;;;;;;4934703;28;20419;-69
2022/06/18 06:45:49;;;;;;;3.30;2.03;;;;;;;;;;4967636;28;20503;-69
2022/06/18 06:48:14;;;;;;;3.08;1.70;;;;;;;;;;4952778;28;20484;-69
2022/06/18 06:50:40;;;;;;;4.10;2.03;;;;;;;;;;4967573;28;20030;-69
2022/06/18 06:53:06;;;;;;;3.05;1.90;;;;;;;;;;4918698;28;20384;-69
2022/06/18 06:58:19;;;;;;;2.83;2.03;;;;;;;;;;4953752;28;20064;-68
2022/06/18 07:00:51;;;;;;;3.47;1.88;;;;;;;;;;4952709;28;20398;-70
2022/06/18 07:03:24;;;;;;;4.97;1.67;;;;;;;;;;4935057;28;20452;-69
2022/06/18 07:05:50;;;;;;;3.15;1.75;;;;;;;;;;4935427;28;20029;-68
2022/06/18 07:08:15;;;;;;;3.88;1.85;;;;;;;;;;4934488;28;20068;-70
2022/06/18 07:10:41;;;;;;;2.45;1.70;;;;;;;;;;4952125;28;20445;-68
2022/06/18 07:13:06;;;;;;;4.18;2.15;;;;;;;;;;4967168;28;20030;-69
2022/06/18 07:15:33;;;;;;;4.57;2.17;;;;;;;;;;4952040;28;20484;-69
2022/06/18 07:17:59;;;;;;;2.55;1.75;;;;;;;;;;4952425;28;20433;-69
2022/06/18 07:20:25;;;;;;;3.05;1.80;;;;;;;;;;4934461;28;20448;-68
2022/06/18 07:22:50;;;;;;;2.95;1.70;;;;;;;;;;4967196;28;20050;-70
2022/06/18 07:25:16;;;;;;;2.85;2.08;;;;;;;;;;4953366;28;20053;-69
2022/06/18 07:27:42;;;;;;;3.33;2.00;;;;;;;;;;4966473;28;20026;-69
2022/06/18 07:30:09;;;;;;;3.97;2.10;;;;;;;;;;4952174;28;20363;-69
2022/06/18 07:32:36;;;;;;;3.38;1.90;;;;;;;;;;4951715;28;20428;-69
2022/06/18 07:35:02;;;;;;;2.33;1.67;;;;;;;;;;4952058;28;20364;-69
2022/06/18 07:37:30;;;;;;;2.47;1.70;;;;;;;;;;4966959;28;20368;-70
2022/06/18 07:39:57;;;;;;;3.78;1.90;;;;;;;;;;4951941;28;20344;-69
2022/06/18 07:42:23;;;;;;;3.15;1.73;;;;;;;;;;4951839;28;20487;-69
2022/06/18 07:44:48;;;;;;;5.45;2.00;;;;;;;;;;4933931;28;20453;-69
2022/06/18 07:47:17;;;;;;;3.47;1.60;;;;;;;;;;4951231;28;20400;-70
2022/06/18 07:49:44;;;;;;;3.58;1.50;;;;;;;;;;4951872;28;20050;-70
2022/06/18 07:52:12;;;;;;;4.50;1.70;;;;;;;;;;4933239;28;20415;-68
2022/06/18 07:54:39;;;;;;;13.27;2.05;;;;;;;;;;4933252;28;20440;-68
2022/06/18 07:57:05;;;;;;;14.20;2.60;;;;;;;;;;4933761;28;20526;-70
2022/06/18 07:59:31;;;;;;;5.57;2.10;;;;;;;;;;4933851;28;20462;-69
2022/06/18 08:01:56;;;;;;;11.90;2.47;;;;;;;;;;4951136;28;20061;-70
2022/06/18 08:04:21;;;;;;;5.15;2.00;;;;;;;;;;4966023;28;20133;-68
2022/06/18 08:06:47;;;;;;;3.40;2.08;;;;;;;;;;4952623;28;20363;-68
2022/06/18 08:09:12;;;;;;;8.75;2.30;;;;;;;;;;4950983;28;20488;-67
2022/06/18 08:11:38;;;;;;;17.30;2.45;;;;;;;;;;4965517;28;20472;-68
2022/06/18 08:14:04;;;;;;;6.05;1.83;;;;;;;;;;4965928;28;20518;-69
2022/06/18 08:16:29;;;;;;;13.13;2.53;;;;;;;;;;4949821;28;20340;-70
2022/06/18 08:18:55;;;;;;;25.30;3.65;;;;;;;;;;4933115;28;20025;-70
2022/06/18 08:21:44;;;;;;;89.20;6.38;;;;;;;;;;4933370;28;20524;-69
2022/06/18 08:24:10;;;;;;;;;;;;;;;;;;4951631;28;20480;-68
2022/06/18 08:26:37;;;;;;;32.13;3.78;;;;;;;;;;4949493;28;20390;-69
2022/06/18 08:29:04;;;;;;;21.27;4.03;;;;;;;;;;4933639;28;20507;-70
2022/06/18 08:31:30;;;;;;;32.08;8.43;;;;;;;;;;4957713;28;20179;-69
2022/06/18 08:33:55;;;;;;;38.95;6.95;;;;;;;;;;4969229;28;20437;-70
2022/06/18 08:36:21;;;;;;;28.17;8.07;;;;;;;;;;4968625;28;20468;-70
2022/06/18 08:38:48;;;;;;;20.92;7.43;;;;;;;;;;4951652;28;20445;-69
2022/06/18 08:41:27;;;;;;;18.13;7.80;;;;;;;;;;4964796;28;20052;-69
2022/06/18 08:44:21;;;;;;;12.35;6.82;;;;;;;;;;4965126;28;20431;-71
2022/06/18 08:47:17;;;;;;;6.05;3.80;;;;;;;;;;4967412;28;20384;-68
2022/06/18 08:49:48;;;;;;;10.13;3.40;;;;;;;;;;4969713;28;20504;-69
2022/06/18 08:52:38;;;;;;;10.13;3.55;;;;;;;;;;4969850;28;20491;-69
2022/06/18 08:55:19;;;;;;;10.48;2.83;;;;;;;;;;4969991;28;20341;-69
2022/06/18 08:57:56;;;;;;;7.25;3.55;;;;;;;;;;4968469;28;20510;-69
2022/06/18 09:00:29;;;;;;;10.70;4.07;;;;;;;;;;4968754;28;20033;-69
2022/06/18 09:03:08;;;;;;;5.38;3.10;;;;;;;;;;4968235;28;20495;-69
2022/06/18 09:06:02;;;;;;;6.13;2.85;;;;;;;;;;4952511;28;20428;-70
2022/06/18 09:08:42;;;;;;;6.35;2.92;;;;;;;;;;4969848;28;20484;-69
2022/06/18 09:11:18;;;;;;;8.25;2.47;;;;;;;;;;4968211;28;20375;-69
2022/06/18 09:13:49;;;;;;;3.80;2.42;;;;;;;;;;4969544;28;20432;-70
2022/06/18 09:16:18;;;;;;;6.38;2.70;;;;;;;;;;4971133;28;20444;-69
2022/06/18 09:18:45;;;;;;;;;;;;;;;;;;4969718;28;20516;-69
2022/06/18 09:21:15;;;;;;;4.65;2.20;;;;;;;;;;4967963;28;20322;-69
2022/06/18 09:23:45;;;;;;;5.57;2.20;;;;;;;;;;4962333;28;20459;-69
2022/06/18 09:26:19;;;;;;;5.47;2.50;;;;;;;;;;4971579;28;20356;-69
2022/06/18 09:28:53;;;;;;;3.15;2.10;;;;;;;;;;4971288;28;20090;-69
2022/06/18 09:31:27;;;;;;;6.38;1.88;;;;;;;;;;4971011;28;20123;-70
2022/06/18 09:34:00;;;;;;;4.72;2.40;;;;;;;;;;4971425;28;20455;-69
2022/06/18 09:36:33;;;;;;;4.45;2.15;;;;;;;;;;4971122;28;20445;-70
2022/06/18 09:39:10;;;;;;;9.48;1.98;;;;;;;;;;4971107;28;20317;-69
2022/06/18 09:42:05;;;;;;;2.92;1.70;;;;;;;;;;4989458;28;20324;-70
2022/06/18 09:44:40;;;;;;;6.00;1.80;;;;;;;;;;4987543;28;20455;-69
2022/06/18 09:47:10;;;;;;;2.55;1.80;;;;;;;;;;4988877;28;20458;-70
2022/06/18 09:49:35;;;;;;;3.80;1.92;;;;;;;;;;4987074;28;20387;-69
2022/06/18 09:52:22;;;;;;;3.42;1.88;;;;;;;;;;4971496;28;20092;-69
2022/06/18 09:54:54;;;;;;;2.75;1.50;;;;;;;;;;4970679;28;20333;-69
2022/06/18 09:57:24;;;;;;;6.13;1.80;;;;;;;;;;4988920;28;20051;-69
2022/06/18 10:00:05;;;;;;;4.80;1.80;;;;;;;;;;4970934;28;20395;-69
2022/06/18 10:02:31;;;;;;;1.85;1.40;;;;;;;;;;4990268;28;20098;-70
2022/06/18 10:07:48;;;;;;;1.63;1.48;;;;;;;;;;4973608;28;20462;-69
2022/06/18 10:10:18;;;;;;;2.25;1.40;;;;;;;;;;4970667;28;20374;-70
2022/06/18 10:12:48;;;;;;;3.05;1.50;;;;;;;;;;4970457;28;20440;-69
2022/06/18 10:15:15;;;;;;;6.32;2.40;;;;;;;;;;4988719;28;20396;-70
2022/06/18 10:18:08;;;;;;;2.65;1.75;;;;;;;;;;4990369;28;20354;-70
2022/06/18 10:20:48;;;;;;;2.25;1.60;;;;;;;;;;4992708;28;20456;-70
2022/06/18 10:23:44;;;;;;;3.80;1.55;;;;;;;;;;4992928;28;20467;-70
2022/06/18 10:26:32;;;;;;;2.95;1.40;;;;;;;;;;4974554;28;20351;-69
2022/06/18 10:29:15;;;;;;;2.47;1.55;;;;;;;;;;4993109;28;20804;-69
2022/06/18 10:31:40;;;;;;;2.08;1.23;;;;;;;;;;4992218;28;20387;-69
2022/06/18 10:34:33;;;;;;;5.28;1.60;;;;;;;;;;4994260;28;20421;-70
2022/06/18 10:37:01;;;;;;;3.30;1.63;;;;;;;;;;4990568;28;20451;-69
2022/06/18 10:39:34;;;;;;;2.17;1.35;;;;;;;;;;4990829;28;20379;-69
2022/06/18 10:42:27;;;;;;;3.13;1.45;;;;;;;;;;4992249;28;20512;-69
2022/06/18 10:45:05;;;;;;;3.33;1.30;;;;;;;;;;4991700;28;20391;-69
2022/06/18 10:47:33;;;;;;;2.97;1.65;;;;;;;;;;4992056;28;20313;-70
2022/06/18 10:50:01;;;;;;;3.55;1.42;;;;;;;;;;4991813;28;20340;-70
2022/06/18 10:52:27;;;;;;;2.08;1.30;;;;;;;;;;4974033;28;20298;-68
2022/06/18 10:55:16;;;;;;;1.75;1.30;;;;;;;;;;4990114;28;20340;-70
2022/06/18 10:57:41;;;;;;;;;;;;;;;;;;4992208;28;20115;-69
2022/06/18 11:00:08;;;;;;;1.85;1.35;;;;;;;;;;4974058;28;20327;-70
2022/06/18 11:02:36;;;;;;;4.00;1.33;;;;;;;;;;4991464;28;20431;-70
2022/06/18 11:05:05;;;;;;;3.33;1.50;;;;;;;;;;4974969;28;20470;-70
2022/06/18 11:07:33;;;;;;;3.30;1.58;;;;;;;;;;4973800;28;20029;-70
2022/06/18 11:10:03;;;;;;;5.53;1.30;;;;;;;;;;4973834;28;20526;-69
2022/06/18 11:12:38;;;;;;;4.20;1.30;;;;;;;;;;4974259;28;20382;-71
2022/06/18 11:15:20;;;;;;;2.33;1.30;;;;;;;;;;4973690;28;20080;-70
2022/06/18 11:17:46;;;;;;;2.53;1.10;;;;;;;;;;4974863;28;20367;-69
2022/06/18 11:20:20;;;;;;;2.38;1.00;;;;;;;;;;4991429;28;20329;-70
2022/06/18 11:22:51;;;;;;;1.67;0.98;;;;;;;;;;4989594;28;20364;-70
2022/06/18 11:25:29;;;;;;;2.00;1.10;;;;;;;;;;4973956;28;20336;-71
2022/06/18 11:28:01;;;;;;;1.60;1.10;;;;;;;;;;4990352;28;20310;-70
2022/06/18 11:30:42;;;;;;;2.88;0.88;;;;;;;;;;4972222;28;20501;-70
2022/06/18 11:33:25;;;;;;;1.92;1.00;;;;;;;;;;4973214;28;20720;-69
2022/06/18 11:35:51;;;;;;;1.60;0.98;;;;;;;;;;4972724;28;20427;-69
2022/06/18 11:38:29;;;;;;;1.40;1.00;;;;;;;;;;4973606;28;20432;-69
2022/06/18 11:41:00;;;;;;;1.92;1.00;;;;;;;;;;4991316;28;20387;-70
2022/06/18 11:43:43;;;;;;;1.83;1.10;;;;;;;;;;4972857;28;20552;-70
2022/06/18 11:46:16;;;;;;;1.35;1.00;;;;;;;;;;4990738;28;20439;-70
2022/06/18 11:48:48;;;;;;;3.58;1.45;;;;;;;;;;4972981;28;20417;-70
2022/06/18 11:51:41;;;;;;;5.05;1.20;;;;;;;;;;4973245;28;20447;-70
2022/06/18 11:54:15;;;;;;;1.90;1.00;;;;;;;;;;4973165;28;20411;-71
2022/06/18 11:56:47;;;;;;;2.47;0.98;;;;;;;;;;4991086;28;20041;-70
2022/06/18 11:59:30;;;;;;;1.40;0.80;;;;;;;;;;4990632;28;20455;-70
2022/06/18 12:02:03;;;;;;;4.43;0.98;;;;;;;;;;4990023;28;20510;-70
2022/06/18 12:04:28;;;;;;;2.17;0.85;;;;;;;;;;4972387;28;20357;-70
2022/06/18 12:06:59;;;;;;;5.78;0.80;;;;;;;;;;4990315;28;20373;-70
2022/06/18 12:09:26;;;;;;;1.75;0.80;;;;;;;;;;4972376;28;20502;-70
2022/06/18 12:12:13;;;;;;;5.20;0.93;;;;;;;;;;4990461;28;20459;-70
2022/06/18 12:14:57;;;;;;;1.45;0.85;;;;;;;;;;4990233;28;20549;-70
2022/06/18 12:17:32;;;;;;;3.25;1.05;;;;;;;;;;4990460;28;20400;-70
2022/06/18 12:20:02;;;;;;;2.92;1.00;;;;;;;;;;4990318;28;20459;-69
2022/06/18 12:22:42;;;;;;;1.23;0.80;;;;;;;;;;4989615;28;20463;-70
2022/06/18 12:25:50;;;;;;;3.05;0.77;;;;;;;;;;4988925;28;20025;-69
2022/06/18 12:28:20;;;;;;;0.93;0.80;;;;;;;;;;4969122;28;20582;-70
2022/06/18 12:30:49;;;;;;;8.77;0.95;;;;;;;;;;4989815;28;20451;-70
2022/06/18 12:33:18;;;;;;;4.68;1.25;;;;;;;;;;4972489;28;20371;-69
2022/06/18 12:36:12;;;;;;;2.03;0.70;;;;;;;;;;4989802;28;20375;-70
2022/06/18 12:38:44;;;;;;;8.75;0.93;;;;;;;;;;4988064;28;20293;-71
2022/06/18 12:41:38;;;;;;;1.60;0.70;;;;;;;;;;4988157;28;20028;-70
2022/06/18 12:44:39;;;;;;;1.80;0.80;;;;;;;;;;4988230;28;20417;-69
2022/06/18 12:47:19;;;;;;;1.95;0.70;;;;;;;;;;4961265;28;20474;-69
2022/06/18 12:50:10;;;;;;;1.08;0.63;;;;;;;;;;4990773;28;20412;-70
2022/06/18 12:52:43;;;;;;;0.95;0.75;;;;;;;;;;4988186;28;20371;-70
2022/06/18 12:55:25;;;;;;;1.63;1.05;;;;;;;;;;4972158;28;20331;-70
2022/06/18 12:58:32;;;;;;;1.23;0.80;;;;;;;;;;4988068;28;20059;-70
2022/06/18 13:01:07;;;;;;;1.55;0.65;;;;;;;;;;4988643;28;20103;-70
2022/06/18 13:04:00;;;;;;;1.98;0.88;;;;;;;;;;4989735;28;20428;-69
2022/06/18 13:06:35;;;;;;;1.48;0.85;;;;;;;;;;4989534;28;20517;-70
2022/06/18 13:09:24;;;;;;;2.40;0.77;;;;;;;;;;4989154;28;20055;-70
2022/06/18 13:12:27;;;;;;;2.50;1.00;;;;;;;;;;4987819;28;20410;-69
2022/06/18 13:15:27;;;;;;;0.88;0.77;;;;;;;;;;4975639;28;20432;-69
2022/06/18 13:17:57;;;;;;;0.95;0.68;;;;;;;;;;4990365;28;20355;-70
2022/06/18 13:20:32;;;;;;;1.77;1.00;;;;;;;;;;4971871;28;20454;-70
2022/06/18 13:22:57;;;;;;;1.77;0.80;;;;;;;;;;4971195;28;20340;-70
2022/06/18 13:28:26;;;;;;;1.10;0.75;;;;;;;;;;4989086;28;20071;-69
2022/06/18 13:31:16;;;;;;;24.10;1.17;;;;;;;;;;4971069;28;20424;-70
2022/06/18 13:34:04;;;;;;;2.05;0.80;;;;;;;;;;4988978;28;20410;-68
2022/06/18 13:37:08;;;;;;;2.00;1.10;;;;;;;;;;4989184;28;20033;-69
2022/06/18 13:39:42;;;;;;;1.02;0.93;;;;;;;;;;4979814;28;20448;-69
2022/06/18 13:42:17;;;;;;;1.55;0.98;;;;;;;;;;4988905;28;20052;-70
2022/06/18 13:44:55;;;;;;;1.67;1.02;;;;;;;;;;4988595;28;20356;-69
2022/06/18 13:47:30;;;;;;;3.88;1.00;;;;;;;;;;4987002;28;20395;-69
2022/06/18 13:50:05;;;;;;;1.80;0.90;;;;;;;;;;4971774;28;20047;-68
2022/06/18 13:52:57;;;;;;;1.23;0.98;;;;;;;;;;4988476;28;20037;-69
2022/06/18 13:55:33;;;;;;;1.52;1.02;;;;;;;;;;4985543;28;20444;-69
2022/06/18 13:57:58;;;;;;;2.50;0.85;;;;;;;;;;4988612;28;20336;-69
2022/06/18 14:00:29;;;;;;;1.88;1.00;;;;;;;;;;4970599;28;20321;-69
2022/06/18 14:03:02;;;;;;;2.03;1.00;;;;;;;;;;4988847;28;20479;-69
2022/06/18 14:05:40;;;;;;;1.50;0.93;;;;;;;;;;4970935;28;20432;-69
2022/06/18 14:08:11;;;;;;;4.07;1.27;;;;;;;;;;4970571;28;20387;-69
2022/06/18 14:10:44;;;;;;;1.85;0.90;;;;;;;;;;4970397;28;20508;-69
2022/06/18 14:13:12;;;;;;;2.33;1.30;;;;;;;;;;4970849;28;20456;-69
2022/06/18 14:15:37;;;;;;;1.63;1.00;;;;;;;;;;4988590;28;20555;-69
2022/06/18 14:18:05;;;;;;;4.75;1.08;;;;;;;;;;4987592;28;20343;-69
2022/06/18 14:20:33;;;;;;;1.85;1.10;;;;;;;;;;4971141;28;20095;-69
2022/06/18 14:23:03;;;;;;;3.60;0.82;;;;;;;;;;4970054;28;20423;-69
2022/06/18 14:26:03;;;;;;;4.15;0.95;;;;;;;;;;4986744;28;20367;-70
2022/06/18 14:28:32;;;;;;;1.70;0.95;;;;;;;;;;4988174;28;20459;-70
2022/06/18 14:31:10;;;;;;;1.98;1.30;;;;;;;;;;4988473;28;20325;-69
2022/06/18 14:34:00;;;;;;;1.35;0.90;;;;;;;;;;4988890;28;20430;-69
2022/06/18 14:36:34;;;;;;;3.80;2.00;;;;;;;;;;4988238;28;20436;-70
2022/06/18 14:39:00;;;;;;;2.28;1.00;;;;;;;;;;4988150;28;20470;-69
2022/06/18 14:41:35;;;;;;;1.85;1.05;;;;;;;;;;4971086;28;20474;-70
2022/06/18 14:44:37;;;;;;;1.88;1.20;;;;;;;;;;4971117;28;20427;-69
2022/06/18 14:47:33;;;;;;;1.10;0.90;;;;;;;;;;4970278;28;20332;-70
2022/06/18 14:50:17;;;;;;;3.40;1.48;;;;;;;;;;4988183;28;20438;-69
2022/06/18 14:53:04;;;;;;;3.00;1.20;;;;;;;;;;4987993;28;20432;-69
2022/06/18 14:56:02;;;;;;;2.58;1.10;;;;;;;;;;4970373;28;20491;-69
2022/06/18 14:58:48;;;;;;;1.38;0.80;;;;;;;;;;4970209;28;20347;-69
2022/06/18 15:01:35;;;;;;;4.38;1.45;;;;;;;;;;4986627;28;20463;-70
2022/06/18 15:04:14;;;;;;;3.20;1.13;;;;;;;;;;4989385;28;20344;-69
2022/06/18 15:06:40;;;;;;;2.75;1.00;;;;;;;;;;4990126;28;20450;-70
2022/06/18 15:09:06;;;;;;;2.83;1.02;;;;;;;;;;4991224;28;20440;-69
2022/06/18 15:11:39;;;;;;;1.20;0.88;;;;;;;;;;4973583;28;20436;-70
2022/06/18 15:14:05;;;;;;;1.55;1.00;;;;;;;;;;4992778;28;20423;-69
2022/06/18 15:16:44;;;;;;;2.70;0.95;;;;;;;;;;4991433;28;20501;-70
2022/06/18 15:19:26;;;;;;;2.42;1.30;;;;;;;;;;4975487;28;20365;-69
2022/06/18 15:21:58;;;;;;;1.33;0.98;;;;;;;;;;4975060;28;20348;-69
2022/06/18 15:27:32;;;;;;;1.92;1.35;;;;;;;;;;4977392;28;20348;-69